Kerrville, TX

1:04 AM CDT on July 26, 2017 (GMT -0500)
Kerrville Municipal-Schreiner

Weather History for KERV - October, 2013

Change the Weather History Date:

Monday, October 28, 2013

  Actual Average (KHDO) Record (KHDO)
Temperature  
Mean Temperature 72 °F -  
Max Temperature 79 °F 76 °F 88 °F (1996)
Min Temperature 66 °F 55 °F 32 °F (2008)
Cooling Degree Days 8    
Growing Degree Days 22 (Base 50)    
Moisture  
Dew Point 65 °F    
Average Humidity 78    
Maximum Humidity 93    
Minimum Humidity 61    
Precipitation  
Precipitation 0.00 in - - ()
Sea Level Pressure  
Sea Level Pressure 30.04 in    
Wind  
Wind Speed 11 mph (SSE)    
Max Wind Speed 18 mph    
Max Gust Speed 26 mph    
Visibility 10 miles    
Events      
Averages and records for this station are not official NWS values.
T = Trace of Precipitation, MM = Missing Value Source: NWS Daily Summary

Daily Weather History Graph

Daily Weather History Graph

Search for Another Location

Airport or City:

Trip Planner

Search our weather history database for the weather conditions in past years. The results will help you decide how hot, cold, wet, or windy it might be!

Date:

Astronomy

Oct. 28, 2013 Rise Set
Actual Time 7:47 AM CDT 6:52 PM CDT
Civil Twilight 7:22 AM CDT 7:16 PM CDT
Nautical Twilight 6:54 AM CDT 7:45 PM CDT
Astronomical Twilight 6:26 AM CDT 8:12 PM CDT
Moon 2:06 AM CDT (10/28) 3:12 PM CDT (10/28)
Length of Visible Light 11h 54m
Length of Day
11h 04m
Waning Crescent, 34% of the Moon is Illuminated
Oct 28
Waning Crescent
Nov 3
New
Nov 9
First Quarter
Nov 17
Full
Nov 25
Last Quarter

Hourly Weather History & Observations

Time (CDT) Temp. Dew Point Humidity Pressure Visibility Wind Dir Wind Speed Gust Speed Precip Events Conditions
12:15 AM 66.2 °F 62.8 °F 89% 30.05 in 10.0 mi ESE 5.8 mph - N/A   Overcast
12:35 AM 66.2 °F 62.8 °F 89% 30.04 in 10.0 mi ESE 6.9 mph - N/A   Overcast
12:55 AM 66.2 °F 63.0 °F 89% 30.04 in 10.0 mi ESE 5.8 mph - N/A   Overcast
1:15 AM 66.2 °F 63.0 °F 89% 30.04 in 10.0 mi ESE 5.8 mph - N/A   Overcast
1:35 AM 67.5 °F 64.4 °F 90% 30.03 in 10.0 mi SE 8.1 mph - N/A   Overcast
1:55 AM 68.0 °F 64.8 °F 89% 30.03 in 10.0 mi SSE 9.2 mph - N/A   Overcast
2:15 AM 68.0 °F 64.9 °F 90% 30.03 in 10.0 mi SSE 8.1 mph - N/A   Overcast
2:35 AM 67.5 °F 64.4 °F 90% 30.03 in 10.0 mi SSE 6.9 mph - N/A   Overcast
2:55 AM 67.5 °F 64.6 °F 90% 30.03 in 10.0 mi SSE 11.5 mph - N/A   Overcast
3:15 AM 67.5 °F 64.6 °F 90% 30.02 in 10.0 mi SE 10.4 mph - N/A   Overcast
3:35 AM 67.1 °F 64.6 °F 92% 30.02 in 7.0 mi SSE 8.1 mph - N/A   Overcast
3:55 AM 67.3 °F 64.9 °F 92% 30.02 in 7.0 mi SSE 11.5 mph - N/A   Overcast
4:15 AM 67.1 °F 64.9 °F 93% 30.02 in 7.0 mi SSE 11.5 mph - N/A   Overcast
4:35 AM 67.3 °F 64.9 °F 92% 30.02 in 7.0 mi SE 11.5 mph - N/A   Overcast
4:55 AM 67.5 °F 65.1 °F 92% 30.02 in 7.0 mi SSE 12.7 mph - N/A   Overcast
5:15 AM 67.5 °F 65.1 °F 92% 30.02 in 10.0 mi SSE 10.4 mph - N/A   Overcast
5:35 AM 68.2 °F 65.7 °F 92% 30.02 in 10.0 mi SSE 10.4 mph - N/A   Overcast
5:55 AM 68.9 °F 66.2 °F 91% 30.02 in 10.0 mi SSE 12.7 mph 16.1 mph N/A   Overcast
6:15 AM 68.9 °F 66.2 °F 91% 30.03 in 10.0 mi SSE 12.7 mph - N/A   Overcast
6:35 AM 68.9 °F 66.2 °F 91% 30.03 in 10.0 mi SSE 10.4 mph - N/A   Overcast
6:55 AM 68.9 °F 65.8 °F 90% 30.03 in 10.0 mi SSE 10.4 mph - N/A   Overcast
7:15 AM 68.9 °F 65.8 °F 90% 30.03 in 10.0 mi SSE 12.7 mph - N/A   Overcast
7:35 AM 68.9 °F 65.7 °F 89% 30.04 in 10.0 mi SSE 10.4 mph - N/A   Overcast
7:55 AM 68.4 °F 65.3 °F 90% 30.05 in 10.0 mi SSE 10.4 mph - N/A   Overcast
8:15 AM 68.2 °F 65.1 °F 90% 30.06 in 10.0 mi SSE 12.7 mph - N/A   Overcast
8:35 AM 68.9 °F 65.7 °F 89% 30.06 in 10.0 mi SSE 10.4 mph - N/A   Overcast
8:55 AM 68.9 °F 65.5 °F 89% 30.07 in 10.0 mi SSE 9.2 mph - N/A   Overcast
9:15 AM 68.9 °F 65.3 °F 88% 30.08 in 10.0 mi South 11.5 mph - N/A   Overcast
9:35 AM 68.9 °F 64.8 °F 87% 30.09 in 10.0 mi South 12.7 mph - N/A   Overcast
9:55 AM 69.6 °F 64.9 °F 85% 30.10 in 10.0 mi South 12.7 mph - N/A   Overcast
10:15 AM 71.6 °F 66.0 °F 82% 30.10 in 10.0 mi SSE 15.0 mph 23.0 mph N/A   Overcast
10:35 AM 71.6 °F 64.8 °F 79% 30.09 in 10.0 mi SSE 16.1 mph - N/A   Mostly Cloudy
10:55 AM 71.6 °F 64.8 °F 79% 30.09 in 10.0 mi SSE 16.1 mph 23.0 mph N/A   Mostly Cloudy
11:15 AM 71.6 °F 64.4 °F 78% 30.09 in 10.0 mi South 15.0 mph 19.6 mph N/A   Mostly Cloudy
11:35 AM 71.6 °F 63.7 °F 76% 30.09 in 10.0 mi South 16.1 mph 19.6 mph N/A   Overcast
11:55 AM 73.9 °F 64.8 °F 73% 30.08 in 10.0 mi South 18.4 mph - N/A   Scattered Clouds
12:15 PM 73.9 °F 64.4 °F 72% 30.08 in 10.0 mi South 15.0 mph - N/A   Scattered Clouds
12:35 PM 76.5 °F 63.7 °F 64% 30.08 in 10.0 mi South 17.3 mph 26.5 mph N/A   Scattered Clouds
12:55 PM 76.6 °F 63.9 °F 65% 30.07 in 10.0 mi South 16.1 mph 21.9 mph N/A   Scattered Clouds
1:15 PM 76.5 °F 64.0 °F 65% 30.06 in 10.0 mi South 15.0 mph 23.0 mph N/A   Mostly Cloudy
1:35 PM 76.5 °F 64.4 °F 66% 30.05 in 10.0 mi SSE 16.1 mph 21.9 mph N/A   Mostly Cloudy
1:55 PM 77.9 °F 64.9 °F 64% 30.03 in 10.0 mi SSE 16.1 mph 24.2 mph N/A   Mostly Cloudy
2:15 PM 76.5 °F 63.5 °F 64% 30.02 in 10.0 mi SSE 16.1 mph - N/A   Mostly Cloudy
2:35 PM 77.0 °F 63.5 °F 63% 30.01 in 10.0 mi SSE 18.4 mph 25.3 mph N/A   Scattered Clouds
2:55 PM 78.1 °F 64.0 °F 62% 30.01 in 10.0 mi SE 17.3 mph - N/A   Mostly Cloudy
3:15 PM 77.4 °F 63.3 °F 62% 30.01 in 10.0 mi SSE 18.4 mph 25.3 mph N/A   Scattered Clouds
3:35 PM 76.6 °F 63.5 °F 64% 30.01 in 10.0 mi SSE 15.0 mph 24.2 mph N/A   Mostly Cloudy
3:55 PM 77.9 °F 63.7 °F 61% 30.00 in 10.0 mi SSE 17.3 mph 20.7 mph N/A   Mostly Cloudy
4:15 PM 79.0 °F 64.6 °F 61% 30.00 in 10.0 mi SSE 17.3 mph 21.9 mph N/A   Mostly Cloudy
4:35 PM 79.0 °F 64.8 °F 62% 30.00 in 10.0 mi SSE 12.7 mph 21.9 mph N/A   Scattered Clouds
4:55 PM 79.0 °F 64.9 °F 62% 30.00 in 10.0 mi SSE 12.7 mph 24.2 mph N/A   Mostly Cloudy
5:15 PM 77.9 °F 63.7 °F 61% 30.00 in 10.0 mi SSE 16.1 mph 21.9 mph N/A   Overcast
5:35 PM 77.9 °F 63.5 °F 61% 29.99 in 10.0 mi SSE 16.1 mph - N/A   Overcast
5:55 PM 77.9 °F 63.5 °F 61% 30.00 in 10.0 mi SSE 12.7 mph - N/A   Overcast
6:15 PM 77.5 °F 63.3 °F 61% 30.00 in 10.0 mi SSE 11.5 mph - N/A   Overcast
6:35 PM 76.5 °F 63.0 °F 63% 29.99 in 10.0 mi SE 12.7 mph - N/A   Overcast
6:55 PM 76.5 °F 64.0 °F 65% 30.00 in 10.0 mi SE 9.2 mph - N/A   Mostly Cloudy
7:15 PM 76.5 °F 65.3 °F 68% 30.00 in 10.0 mi SE 10.4 mph - N/A   Scattered Clouds
7:35 PM 73.9 °F 63.5 °F 70% 30.01 in 10.0 mi SE 8.1 mph - N/A   Clear
7:55 PM 75.2 °F 65.1 °F 71% 30.01 in 10.0 mi SE 13.8 mph - N/A   Mostly Cloudy
8:15 PM 75.9 °F 66.6 °F 73% 30.02 in 10.0 mi SSE 12.7 mph 19.6 mph N/A   Scattered Clouds
8:35 PM 73.9 °F 64.9 °F 73% 30.03 in 10.0 mi SSE 15.0 mph - N/A   Scattered Clouds
8:55 PM 73.9 °F 65.1 °F 74% 30.04 in 10.0 mi SE 12.7 mph - N/A   Scattered Clouds
9:15 PM 72.7 °F 65.3 °F 78% 30.05 in 10.0 mi SSE 8.1 mph - N/A   Scattered Clouds
9:35 PM 71.6 °F 64.0 °F 77% 30.05 in 10.0 mi SE 11.5 mph - N/A   Scattered Clouds
9:55 PM 72.5 °F 63.9 °F 74% 30.05 in 10.0 mi SE 11.5 mph 18.4 mph N/A   Mostly Cloudy
10:15 PM 72.1 °F 63.9 °F 75% 30.05 in 10.0 mi SE 16.1 mph - N/A   Overcast
10:35 PM 71.6 °F 62.6 °F 73% 30.06 in 10.0 mi SSE 16.1 mph 24.2 mph N/A   Overcast
10:55 PM 71.6 °F 63.0 °F 74% 30.07 in 10.0 mi SE 16.1 mph - N/A   Overcast
11:15 PM 71.6 °F 63.5 °F 76% 30.07 in 10.0 mi SSE 16.1 mph 23.0 mph N/A   Overcast
11:35 PM 71.6 °F 64.4 °F 78% 30.08 in 10.0 mi SSE 12.7 mph - N/A   Overcast
11:55 PM 71.6 °F 65.3 °F 80% 30.08 in 10.0 mi SE 13.8 mph - N/A   Overcast